Time;durP1;ratioP1;P1;durP2;ratioP2;P2;SDS_P1;SDS_P2;PMS_P1;PMS_P2;Temp;Humidity;BMP_temperature;BMP_pressure;BME280_temperature;BME280_humidity;BME280_pressure;Samples;Min_cycle;Max_cycle;Signal;HPM_P1;HPM_P2
2021/10/13 00:02:10;;;;;;;5.35;1.30;;;;;;;8.81;95.20;102519.88;5054328;28;20029;-57
2021/10/13 00:04:35;;;;;;;3.38;1.00;;;;;;;8.73;95.72;102527.00;5054183;28;20029;-55
2021/10/13 00:07:01;;;;;;;4.25;1.00;;;;;;;8.64;95.54;102514.75;5054581;28;20017;-57
2021/10/13 00:09:26;;;;;;;5.93;1.70;;;;;;;8.55;95.49;102516.63;5054115;28;20416;-58
2021/10/13 00:11:52;;;;;;;6.40;2.28;;;;;;;8.46;96.15;102512.31;5054414;28;20113;-58
2021/10/13 00:14:17;;;;;;;8.20;1.52;;;;;;;8.35;96.28;102513.25;5053744;28;20025;-60
2021/10/13 00:16:51;;;;;;;6.15;1.60;;;;;;;8.27;96.22;102517.69;5053957;28;20120;-63
2021/10/13 00:19:17;;;;;;;5.63;1.42;;;;;;;8.19;96.04;102515.13;5053884;28;20025;-57
2021/10/13 00:21:42;;;;;;;6.22;1.50;;;;;;;8.14;96.97;102511.66;5054264;28;20518;-62
2021/10/13 00:24:08;;;;;;;3.78;1.33;;;;;;;8.10;96.98;102509.91;5054196;28;20024;-62
2021/10/13 00:26:33;;;;;;;4.88;1.80;;;;;;;8.12;97.36;102508.16;5053914;28;20555;-58
2021/10/13 00:28:58;;;;;;;4.75;1.70;;;;;;;8.15;97.58;102513.41;5054215;28;20021;-55
2021/10/13 00:31:23;;;;;;;5.55;2.53;;;;;;;8.17;97.90;102521.31;5053735;28;20051;-62
2021/10/13 00:33:49;;;;;;;6.97;1.60;;;;;;;8.20;97.96;102524.78;5053653;28;20128;-63
2021/10/13 00:36:14;;;;;;;4.22;1.67;;;;;;;8.25;97.97;102519.50;5053603;28;20029;-54
2021/10/13 00:38:39;;;;;;;6.85;1.73;;;;;;;8.35;98.19;102530.81;5053967;28;20021;-59
2021/10/13 00:41:05;;;;;;;5.88;1.88;;;;;;;8.40;98.65;102517.59;5053699;28;20021;-62
2021/10/13 00:43:30;;;;;;;6.05;1.65;;;;;;;8.47;98.77;102519.34;5053456;28;20477;-56
2021/10/13 00:45:55;;;;;;;5.47;1.60;;;;;;;8.55;98.94;102514.84;5053506;28;20027;-60
2021/10/13 00:48:21;;;;;;;4.90;1.63;;;;;;;8.66;99.15;102520.06;5053669;28;20477;-56
2021/10/13 00:50:46;;;;;;;7.15;1.80;;;;;;;8.75;99.17;102522.59;5052750;28;20043;-60
2021/10/13 00:53:11;;;;;;;7.40;1.67;;;;;;;8.75;98.66;102522.59;5053167;28;20036;-61
2021/10/13 00:55:38;;;;;;;5.80;1.83;;;;;;;8.77;98.18;102538.41;5053706;28;20036;-59
2021/10/13 00:58:03;;;;;;;4.53;1.70;;;;;;;8.80;98.62;102533.97;5053129;28;20480;-61
2021/10/13 01:00:28;;;;;;;5.03;1.55;;;;;;;8.82;98.43;102541.88;5053600;28;20090;-62
2021/10/13 01:03:08;;;;;;;8.93;1.80;;;;;;;8.85;98.26;102540.09;5053211;28;20098;-63
2021/10/13 01:05:54;;;;;;;10.75;2.65;;;;;;;8.89;98.12;102535.66;5053089;28;20025;-57
2021/10/13 01:09:00;;;;;;;10.77;2.50;;;;;;;8.97;97.60;102533.78;5053037;28;20037;-60
2021/10/13 01:11:44;;;;;;;8.18;2.15;;;;;;;8.94;97.96;102528.56;5011472;28;20044;-59
2021/10/13 01:14:34;;;;;;;7.57;1.77;;;;;;;8.90;97.50;102531.25;5011119;28;20041;-62
2021/10/13 01:17:11;;;;;;;4.55;1.75;;;;;;;8.81;96.99;102525.16;5011515;28;20034;-62
2021/10/13 01:19:56;;;;;;;5.45;1.75;;;;;;;8.74;97.12;102519.97;5010790;28;20033;-62
2021/10/13 01:22:51;;;;;;;4.93;1.55;;;;;;;8.64;97.07;102519.19;5011453;28;20092;-56
2021/10/13 01:25:38;;;;;;;6.88;1.88;;;;;;;8.49;96.34;102521.09;5010891;28;20069;-57
2021/10/13 01:28:08;;;;;;;7.78;1.75;;;;;;;8.35;96.40;102512.34;5010951;28;20046;-59
2021/10/13 01:30:58;;;;;;;7.88;1.80;;;;;;;8.23;97.03;102518.63;5010220;28;20026;-56
2021/10/13 01:33:26;;;;;;;4.72;1.60;;;;;;;8.20;97.51;102519.53;5011205;28;20141;-63
2021/10/13 01:35:58;;;;;;;6.35;1.83;;;;;;;8.23;97.74;102523.91;5010385;28;20116;-58
2021/10/13 01:38:27;;;;;;;6.55;2.00;;;;;;;8.30;98.00;102527.34;5010976;28;20026;-57
2021/10/13 01:40:56;;;;;;;5.38;1.88;;;;;;;8.42;98.44;102529.03;5010282;28;20042;-57
2021/10/13 01:43:23;;;;;;;9.95;2.03;;;;;;;8.45;98.90;102532.53;5010942;28;20069;-56
2021/10/13 01:45:52;;;;;;;5.57;2.35;;;;;;;8.48;98.28;102526.38;5010696;28;20034;-57
2021/10/13 01:48:19;;;;;;;8.98;2.90;;;;;;;8.57;98.91;102528.94;5043417;28;20033;-59
2021/10/13 01:50:46;;;;;;;7.35;2.38;;;;;;;8.68;98.73;102534.09;5052107;28;20059;-55
2021/10/13 01:53:17;;;;;;;7.70;2.42;;;;;;;8.75;98.59;102543.72;5052561;28;20533;-54
2021/10/13 01:55:46;;;;;;;10.18;2.40;;;;;;;8.81;98.80;102548.06;5051924;28;20492;-62
2021/10/13 01:58:12;;;;;;;12.07;3.00;;;;;;;8.85;98.85;102539.22;5052459;28;20025;-62
2021/10/13 02:00:38;;;;;;;6.65;2.42;;;;;;;8.89;98.92;102535.66;5052446;28;20025;-61
2021/10/13 02:03:06;;;;;;;8.63;2.45;;;;;;;8.91;98.42;102533.00;5052496;28;20032;-57
2021/10/13 02:05:35;;;;;;;8.07;2.22;;;;;;;8.92;98.15;102542.69;5052374;28;20036;-56
2021/10/13 02:08:01;;;;;;;6.57;2.05;;;;;;;8.95;98.19;102540.00;5051771;28;20568;-54
2021/10/13 02:10:27;;;;;;;9.15;2.55;;;;;;;8.94;98.39;102533.84;5052293;28;20028;-55
2021/10/13 02:12:55;;;;;;;5.57;2.10;;;;;;;8.94;97.84;102544.41;5052145;28;20029;-57
2021/10/13 02:15:23;;;;;;;10.38;2.13;;;;;;;8.93;98.23;102537.38;5052412;28;20043;-60
2021/10/13 02:17:51;;;;;;;10.52;2.13;;;;;;;8.93;98.03;102553.22;5051888;28;20538;-56
2021/10/13 02:20:18;;;;;;;6.43;1.83;;;;;;;8.97;98.69;102539.09;5052431;28;20095;-56
2021/10/13 02:22:48;;;;;;;5.93;2.03;;;;;;;8.97;98.56;102546.16;5051736;28;20025;-62
2021/10/13 02:25:14;;;;;;;16.55;3.47;;;;;;;8.98;98.12;102543.47;5052475;28;20017;-56
2021/10/13 02:27:56;;;;;;;7.22;2.10;;;;;;;8.99;98.43;102552.28;5052045;28;20069;-58
2021/10/13 02:30:21;;;;;;;;;;;;;;;9.03;97.68;102572.50;5052966;28;20148;-58
2021/10/13 02:32:48;;;;;;;8.60;1.73;;;;;;;9.01;97.69;102559.31;5051980;28;20020;-62
2021/10/13 02:35:13;;;;;;;4.88;1.60;;;;;;;9.04;97.46;102574.28;5052283;28;20025;-62
2021/10/13 02:37:38;;;;;;;6.35;1.65;;;;;;;9.04;97.92;102574.28;5051480;28;20110;-51
2021/10/13 02:40:05;;;;;;;5.32;1.33;;;;;;;9.09;97.81;102568.91;5052225;28;20033;-62
2021/10/13 02:42:33;;;;;;;4.97;1.70;;;;;;;9.08;97.27;102567.16;5052490;28;20032;-62
2021/10/13 02:44:59;;;;;;;6.22;1.95;;;;;;;9.05;96.93;102572.50;5051682;28;20408;-63
2021/10/13 02:47:55;;;;;;;7.53;1.80;;;;;;;8.99;97.08;102563.72;5052233;28;20082;-57
2021/10/13 02:50:26;;;;;;;8.95;1.52;;;;;;;8.93;96.76;102562.94;5009882;28;20041;-61
2021/10/13 02:53:16;;;;;;;6.72;1.98;;;;;;;8.84;97.11;102556.81;5009966;28;20117;-56
2021/10/13 02:55:47;;;;;;;4.70;1.50;;;;;;;8.74;97.19;102552.53;5009913;28;20030;-56
2021/10/13 02:58:21;;;;;;;7.90;1.75;;;;;;;8.72;97.76;102550.78;5010196;28;20080;-57
2021/10/13 03:00:48;;;;;;;7.10;1.95;;;;;;;8.73;97.50;102563.13;5009440;28;20133;-62
2021/10/13 03:03:27;;;;;;;9.35;1.80;;;;;;;8.74;97.98;102552.53;5010310;28;20026;-57
2021/10/13 03:05:56;;;;;;;6.93;1.80;;;;;;;8.78;97.70;102553.38;5009813;28;20077;-61
2021/10/13 03:08:24;;;;;;;6.53;1.77;;;;;;;8.77;97.54;102567.47;5009837;28;20064;-59
2021/10/13 03:10:55;;;;;;;6.93;1.58;;;;;;;8.74;97.45;102570.16;5009706;28;20557;-57
2021/10/13 03:13:25;;;;;;;6.43;2.10;;;;;;;8.64;97.17;102582.56;5011453;28;20513;-62
2021/10/13 03:15:52;;;;;;;3.83;1.50;;;;;;;8.56;97.59;102576.47;5014421;28;20029;-63
2021/10/13 03:18:17;;;;;;;8.10;2.03;;;;;;;8.51;98.18;102577.38;5014708;28;20076;-57
2021/10/13 03:20:43;;;;;;;7.28;2.00;;;;;;;8.49;98.69;102575.63;5013085;28;20390;-61
2021/10/13 03:23:12;;;;;;;9.90;2.00;;;;;;;8.47;98.44;102580.94;5013371;28;20474;-58
2021/10/13 03:25:38;;;;;;;6.85;1.98;;;;;;;8.47;98.65;102593.28;5013297;28;20432;-63
2021/10/13 03:28:04;;;;;;;4.75;1.80;;;;;;;8.52;98.24;102602.03;5046530;28;20045;-62
2021/10/13 03:30:31;;;;;;;10.30;1.90;;;;;;;8.51;98.31;102603.78;5055228;28;20028;-59
2021/10/13 03:32:57;;;;;;;7.20;1.88;;;;;;;8.51;98.73;102600.28;5054835;28;20063;-59
2021/10/13 03:35:32;;;;;;;5.18;2.00;;;;;;;8.53;99.06;102601.16;5055158;28;20076;-61
2021/10/13 03:38:00;;;;;;;7.28;2.00;;;;;;;8.61;99.61;102598.44;5054922;28;20405;-61
2021/10/13 03:40:27;;;;;;;5.78;1.67;;;;;;;8.67;99.72;102595.72;5054731;28;20427;-62
2021/10/13 03:42:53;;;;;;;7.18;2.17;;;;;;;8.68;99.71;102595.72;5054581;28;20032;-57
2021/10/13 03:45:20;;;;;;;6.05;1.90;;;;;;;8.72;99.90;102599.22;5054644;28;20094;-61
2021/10/13 03:47:46;;;;;;;7.03;2.50;;;;;;;8.78;99.75;102599.16;5054935;28;20025;-61
2021/10/13 03:50:14;;;;;;;10.02;2.03;;;;;;;8.80;99.92;102600.03;5054758;28;20040;-58
2021/10/13 03:52:40;;;;;;;7.57;2.20;;;;;;;8.82;99.96;102600.91;5054205;28;20025;-57
2021/10/13 03:55:08;;;;;;;7.07;2.30;;;;;;;8.82;99.63;102592.97;5054482;28;20505;-57
2021/10/13 03:57:33;;;;;;;7.93;2.45;;;;;;;8.85;100.00;102600.00;5054513;28;20033;-62
2021/10/13 03:59:59;;;;;;;9.00;3.05;;;;;;;8.92;99.91;102592.88;5054677;28;20025;-62
2021/10/13 04:02:25;;;;;;;7.30;2.55;;;;;;;8.96;100.00;102587.53;5054252;28;20021;-63
2021/10/13 04:04:50;;;;;;;10.35;2.58;;;;;;;8.98;99.90;102579.59;5054231;28;20366;-62
2021/10/13 04:07:15;;;;;;;9.40;2.42;;;;;;;9.01;99.62;102577.81;5054461;28;20048;-59
2021/10/13 04:09:41;;;;;;;7.38;2.30;;;;;;;9.01;99.16;102592.78;5054643;28;20116;-59
2021/10/13 04:12:06;;;;;;;10.90;2.58;;;;;;;8.96;99.08;102584.88;5053798;28;20032;-56
2021/10/13 04:14:32;;;;;;;7.68;2.55;;;;;;;8.91;99.03;102580.56;5054125;28;20041;-57
2021/10/13 04:16:57;;;;;;;4.97;2.30;;;;;;;8.86;99.03;102572.66;5054305;28;20112;-55
2021/10/13 04:19:23;;;;;;;6.75;1.98;;;;;;;8.82;99.52;102579.75;5054002;28;20112;-60
2021/10/13 04:21:48;;;;;;;8.15;2.55;;;;;;;8.79;99.39;102577.13;5054227;28;20025;-62
2021/10/13 04:24:13;;;;;;;6.90;2.47;;;;;;;8.75;99.01;102574.56;5052515;28;20029;-54
2021/10/13 04:26:39;;;;;;;10.77;2.50;;;;;;;8.67;99.20;102578.13;5053516;28;20061;-59
2021/10/13 04:29:04;;;;;;;8.77;2.70;;;;;;;8.58;98.83;102588.78;5053874;28;20056;-59
2021/10/13 04:31:29;;;;;;;4.07;2.17;;;;;;;8.48;99.48;102593.25;5054290;28;20035;-63
2021/10/13 04:33:55;;;;;;;9.70;2.65;;;;;;;8.41;99.30;102590.63;5053653;28;20108;-61
2021/10/13 04:36:20;;;;;;;6.68;2.50;;;;;;;8.37;99.89;102593.28;5053502;28;20067;-59
2021/10/13 04:38:45;;;;;;;7.43;2.25;;;;;;;8.37;99.77;102590.63;5053668;28;20147;-63
2021/10/13 04:41:11;;;;;;;9.77;2.80;;;;;;;8.46;100.00;102586.22;5053388;28;20056;-62
2021/10/13 04:43:36;;;;;;;9.95;3.80;;;;;;;8.52;99.85;102587.03;5053645;28;20087;-59
2021/10/13 04:46:01;;;;;;;11.10;3.85;;;;;;;8.53;99.81;102583.53;5053115;28;20090;-61
2021/10/13 04:48:27;;;;;;;9.00;3.13;;;;;;;8.55;100.00;102591.44;5053693;28;20036;-59
2021/10/13 04:50:52;;;;;;;9.23;3.88;;;;;;;8.58;100.00;102590.53;5053747;28;20036;-62
2021/10/13 04:53:18;;;;;;;8.02;3.00;;;;;;;8.54;100.00;102581.75;5053542;28;20064;-63
2021/10/13 04:55:43;;;;;;;8.07;2.78;;;;;;;8.47;100.00;102583.56;5052961;28;20487;-55
2021/10/13 04:58:08;;;;;;;9.98;3.85;;;;;;;8.41;100.00;102593.28;5052575;28;20036;-61
2021/10/13 05:00:33;;;;;;;9.43;3.10;;;;;;;8.34;100.00;102593.31;5053646;28;20021;-58
2021/10/13 05:02:59;;;;;;;8.85;3.10;;;;;;;8.36;100.00;102591.56;5053210;28;20583;-57
2021/10/13 05:05:24;;;;;;;8.60;3.22;;;;;;;8.41;100.00;102601.19;5053090;28;20093;-61
2021/10/13 05:07:49;;;;;;;11.90;4.22;;;;;;;8.51;100.00;102597.63;5052939;28;20021;-62
2021/10/13 05:10:15;;;;;;;9.48;2.95;;;;;;;8.61;100.00;102596.66;5053082;28;20048;-59
2021/10/13 05:12:40;;;;;;;8.20;3.03;;;;;;;8.72;100.00;102603.63;5052656;28;20111;-60
2021/10/13 05:15:06;;;;;;;15.02;3.20;;;;;;;8.76;100.00;102593.03;5053015;28;20016;-60
2021/10/13 05:17:32;;;;;;;11.25;3.05;;;;;;;8.76;100.00;102598.31;5052924;28;20044;-59
2021/10/13 05:19:57;;;;;;;9.80;3.45;;;;;;;8.76;100.00;102590.38;5053192;28;20028;-56
2021/10/13 05:22:22;;;;;;;10.27;2.70;;;;;;;8.80;100.00;102592.09;5053266;28;20116;-57
2021/10/13 05:24:48;;;;;;;10.45;2.80;;;;;;;8.89;100.00;102598.16;5053239;28;20449;-57
2021/10/13 05:27:14;;;;;;;10.68;2.88;;;;;;;8.96;100.00;102611.31;5052908;28;20104;-57
2021/10/13 05:29:40;;;;;;;12.68;3.13;;;;;;;8.93;100.00;102608.72;5047701;28;20432;-57
2021/10/13 05:32:06;;;;;;;8.88;3.47;;;;;;;8.94;100.00;102613.09;5052556;28;20108;-58
2021/10/13 05:34:31;;;;;;;6.68;2.88;;;;;;;8.96;99.62;102608.66;5050324;28;20029;-57
2021/10/13 05:36:56;;;;;;;7.10;2.35;;;;;;;9.01;99.65;102609.53;5036850;28;20033;-57
2021/10/13 05:39:22;;;;;;;8.60;2.38;;;;;;;9.07;99.85;102616.50;5038687;28;20020;-58
2021/10/13 05:41:47;;;;;;;6.65;2.53;;;;;;;9.13;99.55;102615.56;5050709;28;20381;-58
2021/10/13 05:44:12;;;;;;;7.32;2.83;;;;;;;9.10;98.74;102610.31;5052132;28;20136;-57
2021/10/13 05:46:38;;;;;;;10.45;2.47;;;;;;;9.09;98.96;102611.19;5052465;28;20098;-57
2021/10/13 05:49:03;;;;;;;7.82;2.72;;;;;;;9.10;99.04;102627.03;5052376;28;20071;-56
2021/10/13 05:51:28;;;;;;;11.00;2.65;;;;;;;9.11;98.58;102625.28;5051818;28;20053;-59
2021/10/13 05:53:54;;;;;;;10.30;2.55;;;;;;;9.11;98.71;102617.34;5052730;28;20449;-58
2021/10/13 05:56:19;;;;;;;7.30;2.30;;;;;;;9.11;98.71;102625.28;5052408;28;20029;-58
2021/10/13 05:58:44;;;;;;;9.23;3.00;;;;;;;9.12;98.27;102634.97;5052312;28;20021;-63
2021/10/13 06:01:10;;;;;;;9.02;2.58;;;;;;;9.12;98.58;102635.84;5051747;28;20108;-57
2021/10/13 06:03:35;;;;;;;8.52;2.58;;;;;;;9.14;98.56;102634.06;5035200;28;20025;-57
2021/10/13 06:06:00;;;;;;;10.52;2.47;;;;;;;9.15;98.25;102632.28;5030830;28;20087;-58
2021/10/13 06:08:26;;;;;;;4.95;2.38;;;;;;;9.17;98.45;102638.44;5042682;28;20030;-60
2021/10/13 06:10:51;;;;;;;7.68;2.22;;;;;;;9.16;98.73;102639.31;5034251;28;20067;-54
2021/10/13 06:13:16;;;;;;;7.57;2.53;;;;;;;9.18;98.61;102638.41;5052286;28;20361;-59
2021/10/13 06:15:42;;;;;;;11.55;2.88;;;;;;;9.23;98.19;102643.63;5052448;28;20380;-61
2021/10/13 06:18:07;;;;;;;10.93;2.67;;;;;;;9.25;98.44;102649.81;5052375;28;20457;-60
2021/10/13 06:20:33;;;;;;;10.60;2.70;;;;;;;9.26;98.24;102645.38;5052034;28;20127;-63
2021/10/13 06:22:59;;;;;;;6.53;2.00;;;;;;;9.30;98.66;102652.41;5053299;28;20067;-60
2021/10/13 06:25:24;;;;;;;13.38;2.50;;;;;;;9.29;98.11;102653.28;5052182;28;20021;-58
2021/10/13 06:27:49;;;;;;;8.35;2.13;;;;;;;9.25;98.44;102652.44;5052417;28;20028;-53
2021/10/13 06:30:15;;;;;;;5.32;2.20;;;;;;;9.22;97.48;102656.88;5052317;28;20021;-59
2021/10/13 06:32:41;;;;;;;10.93;3.00;;;;;;;9.19;97.63;102652.50;5051610;28;20469;-59
2021/10/13 06:35:07;;;;;;;9.27;2.65;;;;;;;9.13;97.98;102650.81;5051522;28;20381;-54
2021/10/13 06:37:32;;;;;;;7.88;2.83;;;;;;;9.10;97.82;102655.25;5052592;28;20033;-58
2021/10/13 06:39:57;;;;;;;8.07;2.22;;;;;;;9.08;97.87;102660.53;5052291;28;20021;-62
2021/10/13 06:42:23;;;;;;;9.15;2.63;;;;;;;9.13;98.12;102664.03;5052235;28;20033;-60
2021/10/13 06:44:48;;;;;;;12.95;3.00;;;;;;;9.16;98.19;102660.47;5050594;28;20400;-63
2021/10/13 06:47:13;;;;;;;7.88;2.70;;;;;;;9.23;98.42;102659.50;5047039;28;20108;-61
2021/10/13 06:49:38;;;;;;;14.18;4.60;;;;;;;9.27;98.43;102663.00;5052392;28;20127;-62
2021/10/13 06:52:04;;;;;;;11.02;2.80;;;;;;;9.37;98.34;102669.06;5048466;28;20025;-60
2021/10/13 06:54:29;;;;;;;10.45;3.80;;;;;;;9.45;98.07;102665.47;5055591;28;20056;-59
2021/10/13 06:56:54;;;;;;;7.53;2.47;;;;;;;9.55;97.74;102673.28;5056081;28;20059;-58
2021/10/13 06:59:20;;;;;;;7.60;2.80;;;;;;;9.67;97.57;102670.50;5055307;28;20029;-56
2021/10/13 07:01:45;;;;;;;6.85;3.10;;;;;;;9.82;97.40;102674.72;5055866;28;20025;-59
2021/10/13 07:04:11;;;;;;;8.60;2.95;;;;;;;9.96;97.15;102671.91;5055355;28;20028;-53
2021/10/13 07:06:36;;;;;;;7.32;2.70;;;;;;;10.07;96.12;102674.44;5050858;28;20025;-57
2021/10/13 07:09:01;;;;;;;7.35;2.70;;;;;;;10.16;96.34;102682.25;5035737;28;20026;-58
2021/10/13 07:11:27;;;;;;;8.48;2.58;;;;;;;10.23;95.99;102675.97;5035834;28;20023;-58
2021/10/13 07:13:52;;;;;;;8.10;2.60;;;;;;;10.35;95.18;102672.28;5035675;28;20032;-53
2021/10/13 07:16:18;;;;;;;9.75;2.55;;;;;;;10.54;94.88;102679.97;5049620;28;20028;-62
2021/10/13 07:18:43;;;;;;;9.50;2.95;;;;;;;10.67;94.24;102680.69;5055623;28;20028;-62
2021/10/13 07:21:08;;;;;;;13.02;2.97;;;;;;;10.72;93.49;102687.66;5055138;28;20461;-58
2021/10/13 07:23:33;;;;;;;8.05;2.80;;;;;;;10.80;93.27;102679.56;5054743;28;20079;-61
2021/10/13 07:25:59;;;;;;;6.65;2.60;;;;;;;10.84;93.01;102686.56;5055046;28;20060;-60
2021/10/13 07:28:28;;;;;;;8.52;3.38;;;;;;;10.85;92.86;102684.81;5054176;28;20519;-63
2021/10/13 07:30:53;;;;;;;7.50;2.70;;;;;;;10.87;92.42;102685.63;5055151;28;20040;-60
2021/10/13 07:33:19;;;;;;;6.93;2.20;;;;;;;10.97;91.49;102685.47;5053835;28;20503;-59
2021/10/13 07:35:45;;;;;;;6.43;2.00;;;;;;;11.05;90.95;102688.00;5054943;28;20100;-60
2021/10/13 07:38:12;;;;;;;4.75;1.90;;;;;;;11.07;89.39;102686.19;5054571;28;20089;-63
2021/10/13 07:40:37;;;;;;;8.40;2.33;;;;;;;11.06;88.56;102684.44;5054813;28;20040;-59
2021/10/13 07:43:03;;;;;;;10.70;3.30;;;;;;;11.07;88.82;102680.00;5054485;28;20025;-57
2021/10/13 07:45:29;;;;;;;12.65;3.63;;;;;;;11.07;88.76;102680.88;5049844;28;20451;-57
2021/10/13 07:47:54;;;;;;;8.38;3.10;;;;;;;11.10;88.46;102687.91;5053416;28;20070;-63
2021/10/13 07:50:20;;;;;;;6.25;2.67;;;;;;;11.13;88.54;102688.72;5053631;28;20025;-63
2021/10/13 07:52:45;;;;;;;8.48;3.45;;;;;;;11.16;89.44;102687.78;5053848;28;20032;-64
2021/10/13 07:55:11;;;;;;;8.32;3.20;;;;;;;11.26;89.68;102683.22;5053333;28;20473;-60
2021/10/13 07:57:36;;;;;;;6.93;2.85;;;;;;;11.41;90.72;102679.41;5037489;28;20033;-63
2021/10/13 08:00:05;;;;;;;10.45;2.60;;;;;;;11.52;87.88;102679.19;5036420;28;20037;-60
2021/10/13 08:02:30;;;;;;;8.82;2.55;;;;;;;11.71;87.65;102679.72;5050374;28;20447;-56
2021/10/13 08:04:56;;;;;;;9.00;2.38;;;;;;;11.86;87.49;102689.16;5046879;28;20021;-51
2021/10/13 08:07:21;;;;;;;6.97;2.08;;;;;;;11.94;87.29;102690.75;5053289;28;20049;-58
2021/10/13 08:09:46;;;;;;;8.00;2.30;;;;;;;12.00;87.11;102689.75;5052333;28;20036;-59
2021/10/13 08:12:11;;;;;;;7.00;2.50;;;;;;;12.09;86.63;102692.22;5053375;28;20134;-55
2021/10/13 08:14:37;;;;;;;8.57;2.53;;;;;;;12.19;86.45;102703.53;5053339;28;20084;-58
2021/10/13 08:17:02;;;;;;;5.07;2.08;;;;;;;12.28;86.03;102697.13;5053295;28;20047;-56
2021/10/13 08:19:28;;;;;;;5.38;1.95;;;;;;;12.39;84.56;102700.44;5054397;28;20027;-57
2021/10/13 08:21:54;;;;;;;5.65;2.17;;;;;;;12.35;84.01;102714.66;5053740;28;20033;-55
2021/10/13 08:24:19;;;;;;;4.75;1.55;;;;;;;12.20;79.51;102710.59;5054349;28;20106;-58
2021/10/13 08:26:45;;;;;;;10.48;1.70;;;;;;;12.07;81.15;102709.09;5052708;28;20041;-58
2021/10/13 08:29:10;;;;;;;5.30;1.40;;;;;;;12.01;80.21;102719.81;5053894;28;20021;-60
2021/10/13 08:31:36;;;;;;;6.28;1.35;;;;;;;11.98;82.01;102730.53;5053809;28;20039;-60
2021/10/13 08:34:01;;;;;;;5.80;1.40;;;;;;;11.95;81.97;102729.66;5054111;28;20022;-59
2021/10/13 08:36:26;;;;;;;6.28;1.80;;;;;;;12.01;83.11;102720.72;5052928;28;20477;-59
2021/10/13 08:38:52;;;;;;;6.80;1.58;;;;;;;12.11;84.40;102722.28;5053430;28;20041;-53
2021/10/13 08:41:17;;;;;;;6.18;1.40;;;;;;;12.12;81.30;102729.34;5050218;28;20029;-59
2021/10/13 08:43:44;;;;;;;5.30;1.38;;;;;;;12.08;81.72;102724.97;5050732;28;20082;-59
2021/10/13 08:46:10;;;;;;;4.38;1.77;;;;;;;12.07;81.31;102725.00;5049490;28;20033;-58
2021/10/13 08:48:36;;;;;;;4.75;1.55;;;;;;;12.17;81.33;102726.56;5048233;28;20381;-57
2021/10/13 08:51:01;;;;;;;5.38;1.67;;;;;;;12.30;82.26;102727.19;5053044;28;20029;-58
2021/10/13 08:53:27;;;;;;;5.35;1.50;;;;;;;12.35;81.28;102727.94;5053691;28;20037;-55
2021/10/13 08:55:52;;;;;;;5.15;1.30;;;;;;;12.40;81.71;102731.38;5053312;28;20115;-55
2021/10/13 08:58:21;;;;;;;5.60;1.38;;;;;;;12.51;81.65;102733.81;5053227;28;20151;-58
2021/10/13 09:00:49;;;;;;;3.53;1.35;;;;;;;12.54;81.14;102731.06;5053550;28;20070;-59
2021/10/13 09:03:29;;;;;;;4.68;1.50;;;;;;;12.56;81.66;102723.09;5053107;28;20382;-58
2021/10/13 09:05:58;;;;;;;3.97;1.73;;;;;;;12.56;81.71;102731.91;5052096;28;20021;-60
2021/10/13 09:08:24;;;;;;;4.75;1.30;;;;;;;12.64;80.45;102736.19;5051575;28;20104;-55
2021/10/13 09:10:54;;;;;;;7.20;1.80;;;;;;;12.68;81.65;102741.38;5052382;28;20432;-58
2021/10/13 09:13:20;;;;;;;7.22;1.77;;;;;;;12.60;79.95;102740.69;5052957;28;20075;-56
2021/10/13 09:15:48;;;;;;;8.68;2.22;;;;;;;12.52;79.17;102727.59;5047312;28;20025;-58
2021/10/13 09:18:14;;;;;;;7.47;2.47;;;;;;;12.53;80.49;102732.00;5048421;28;20037;-58
2021/10/13 09:20:41;;;;;;;9.55;2.45;;;;;;;12.62;83.70;102728.22;5052368;28;20083;-58
2021/10/13 09:23:21;;;;;;;8.15;2.33;;;;;;;12.68;78.99;102729.88;5052493;28;20481;-55
2021/10/13 09:26:24;;;;;;;5.43;1.70;;;;;;;12.86;81.94;102733.91;5053166;28;20021;-59
2021/10/13 09:28:58;;;;;;;7.15;1.50;;;;;;;13.04;80.68;102735.22;5028577;28;20034;-58
2021/10/13 09:31:25;;;;;;;6.25;1.98;;;;;;;13.11;77.39;102737.69;5029830;28;20123;-58
2021/10/13 09:33:54;;;;;;;8.07;2.38;;;;;;;13.52;78.44;102732.25;5029621;28;20053;-53
2021/10/13 09:36:19;;;;;;;8.30;1.85;;;;;;;14.01;76.31;102748.63;5018739;28;20132;-57
2021/10/13 09:38:45;;;;;;;8.02;2.00;;;;;;;14.20;75.64;102735.66;5011128;28;20451;-57
2021/10/13 09:41:10;;;;;;;5.13;1.65;;;;;;;15.16;75.24;102745.13;5012003;28;20459;-59
2021/10/13 09:43:37;;;;;;;5.25;2.10;;;;;;;15.84;70.31;102750.78;5015712;28;20033;-55
2021/10/13 09:46:08;;;;;;;9.73;2.40;;;;;;;15.63;66.66;102760.44;5011292;28;20494;-59
2021/10/13 09:48:36;;;;;;;10.40;1.90;;;;;;;14.99;68.23;102761.72;5011849;28;20041;-59
2021/10/13 09:51:16;;;;;;;6.35;1.67;;;;;;;14.40;70.92;102756.38;5010368;28;20030;-53
2021/10/13 09:53:42;;;;;;;5.30;1.20;;;;;;;13.87;73.83;102769.47;5018897;28;20037;-58
2021/10/13 09:56:35;;;;;;;9.93;2.65;;;;;;;13.49;76.16;102766.03;5030663;28;20044;-60
2021/10/13 09:59:18;;;;;;;4.88;1.92;;;;;;;13.32;76.74;102761.13;5028783;28;20076;-58
2021/10/13 10:01:45;;;;;;;7.65;2.30;;;;;;;13.24;78.24;102759.53;5041666;28;20028;-59
2021/10/13 10:04:15;;;;;;;5.60;1.90;;;;;;;13.24;75.74;102762.19;5052674;28;20521;-58
2021/10/13 10:06:42;;;;;;;6.57;1.60;;;;;;;13.38;76.08;102753.03;5051681;28;20032;-58
2021/10/13 10:09:07;;;;;;;3.28;1.60;;;;;;;13.64;75.13;102757.66;5051668;28;20024;-56
2021/10/13 10:11:40;;;;;;;5.55;1.80;;;;;;;14.72;71.34;102762.53;5052197;28;20037;-56
2021/10/13 10:14:31;;;;;;;6.53;1.70;;;;;;;15.84;67.05;102757.03;5051078;28;20109;-57
2021/10/13 10:16:57;;;;;;;4.70;1.30;;;;;;;15.75;65.09;102753.78;5051540;28;20120;-58
2021/10/13 10:19:27;;;;;;;5.13;1.50;;;;;;;15.61;65.53;102760.47;5051827;28;20117;-52
2021/10/13 10:21:56;;;;;;;6.85;1.75;;;;;;;15.38;70.85;102758.59;5050976;28;20033;-54
2021/10/13 10:24:32;;;;;;;4.85;1.38;;;;;;;15.19;67.63;102759.25;5056289;28;20021;-53
2021/10/13 10:27:18;;;;;;;7.63;1.63;;;;;;;15.64;66.42;102762.16;5055769;28;20040;-58
2021/10/13 10:29:47;;;;;;;6.35;1.33;;;;;;;16.09;66.49;102763.22;5055489;28;20057;-58
2021/10/13 10:32:19;;;;;;;6.18;1.75;;;;;;;15.81;62.55;102751.78;5070397;28;20048;-58
2021/10/13 10:35:03;;;;;;;7.80;2.17;;;;;;;15.56;63.53;102759.75;5055918;28;20135;-55
2021/10/13 10:37:38;;;;;;;7.82;2.10;;;;;;;15.30;61.87;102766.88;5055563;28;20041;-58
2021/10/13 10:40:25;;;;;;;8.40;2.15;;;;;;;15.17;62.25;102753.09;5053676;28;20033;-57
2021/10/13 10:42:51;;;;;;;5.95;1.17;;;;;;;15.70;60.05;102765.50;5047954;28;20074;-55
2021/10/13 10:45:25;;;;;;;7.03;2.40;;;;;;;17.06;57.06;102759.47;5056125;28;20893;-57
2021/10/13 10:47:54;;;;;;;8.13;1.58;;;;;;;18.41;51.92;102769.63;5056373;28;20286;-57
2021/10/13 10:50:38;;;;;;;2.28;1.38;;;;;;;19.38;49.53;102766.72;5055019;28;20115;-57
2021/10/13 10:53:12;;;;;;;4.63;1.10;;;;;;;19.74;46.52;102769.25;5055695;28;20052;-58
2021/10/13 10:55:40;;;;;;;7.60;1.60;;;;;;;18.89;47.12;102770.00;5054755;28;20112;-56
2021/10/13 10:58:32;;;;;;;5.13;1.35;;;;;;;17.62;53.17;102770.47;5055270;28;20028;-58
2021/10/13 11:01:00;;;;;;;9.48;1.90;;;;;;;16.88;54.76;102772.63;5053272;28;20190;-58
2021/10/13 11:03:37;;;;;;;5.63;1.65;;;;;;;16.29;56.42;102771.41;5055807;28;20028;-56
2021/10/13 11:06:13;;;;;;;6.10;2.80;;;;;;;15.97;58.56;102775.25;5054756;28;20056;-58
2021/10/13 11:09:11;;;;;;;7.68;2.95;;;;;;;16.07;58.17;102770.47;5055165;28;20035;-57
2021/10/13 11:11:40;;;;;;;7.18;2.38;;;;;;;16.67;56.30;102776.16;5017045;28;20042;-62
2021/10/13 11:14:21;;;;;;;7.25;2.10;;;;;;;17.09;53.30;102775.38;5020762;28;20036;-59
2021/10/13 11:16:54;;;;;;;3.77;1.80;;;;;;;17.94;49.93;102773.56;5032923;28;20150;-58
2021/10/13 11:19:39;;;;;;;3.35;1.20;;;;;;;17.61;50.71;102783.00;5016947;28;20049;-59
2021/10/13 11:22:06;;;;;;;6.75;1.77;;;;;;;18.22;53.72;102767.81;5025852;28;20097;-58
2021/10/13 11:24:34;;;;;;;6.95;1.67;;;;;;;19.10;49.70;102776.16;5015121;28;20029;-58
2021/10/13 11:27:00;;;;;;;5.30;1.52;;;;;;;19.07;46.38;102774.50;5013365;28;20026;-52
2021/10/13 11:29:28;;;;;;;5.03;1.52;;;;;;;18.20;48.79;102784.91;4999324;28;20421;-55
2021/10/13 11:32:02;;;;;;;4.68;1.30;;;;;;;16.83;51.27;102784.47;5022078;28;20052;-56
2021/10/13 11:34:27;;;;;;;4.97;1.40;;;;;;;16.15;54.07;102785.28;5014787;28;20506;-59
2021/10/13 11:36:56;;;;;;;4.78;1.48;;;;;;;15.60;56.59;102790.78;5012819;28;20060;-55